Time;durP1;ratioP1;P1;durP2;ratioP2;P2;SDS_P1;SDS_P2;PMS_P1;PMS_P2;Temp;Humidity;BMP_temperature;BMP_pressure;BME280_temperature;BME280_humidity;BME280_pressure;Samples;Min_cycle;Max_cycle;Signal;HPM_P1;HPM_P2
2023/05/11 00:02:08;;;;;;;;;;;;;;;13.78;95.33;100693.00;4927674;28;19927;-83
2023/05/11 00:04:39;;;;;;;;;;;;;;;13.45;95.02;100623.41;4879797;29;20665;-82
2023/05/11 00:07:09;;;;;;;;;;;;;;;13.76;95.63;100675.47;4898022;28;20566;-82
2023/05/11 00:09:37;;;;;;;;;;;;;;;13.79;95.91;100677.84;4937149;28;19922;-83
2023/05/11 00:12:04;;;;;;;;;;;;;;;13.79;94.97;100670.69;4936202;28;20360;-82
2023/05/11 00:14:31;;;;;;;;;;;;;;;13.83;94.53;100669.34;4936586;28;20705;-82
2023/05/11 00:16:58;;;;;;;;;;;;;;;13.84;94.09;100664.88;4916382;28;20143;-80
2023/05/11 00:19:30;;;;;;;;;;;;;;;13.56;93.48;100614.31;4933893;28;19926;-83
2023/05/11 00:21:57;;;;;;;;;;;;;;;13.83;94.03;100655.19;4937421;28;19926;-82
2023/05/11 00:24:24;;;;;;;;;;;;;;;13.88;94.03;100652.88;4918409;28;20329;-83
2023/05/11 00:26:54;;;;;;;;;;;;;;;13.85;93.64;100664.69;4919570;28;19926;-81
2023/05/11 00:29:21;;;;;;;;;;;;;;;13.90;92.87;100654.38;4934783;28;19925;-81
2023/05/11 00:31:49;;;;;;;;;;;;;;;13.86;93.03;100653.06;4938771;28;20034;-80
2023/05/11 00:34:16;;;;;;;;;;;;;;;13.85;92.88;100654.03;4939116;28;20010;-81
2023/05/11 00:36:43;;;;;;;;;;;;;;;13.88;92.68;100652.88;4938481;28;20310;-80
2023/05/11 00:39:11;;;;;;;;;;;;;;;13.83;92.46;100648.00;4932355;28;19922;-81
2023/05/11 00:41:38;;;;;;;;;;;;;;;13.85;92.36;100651.34;4938189;28;19934;-80
2023/05/11 00:44:04;;;;;;;;;;;;;;;13.83;92.50;100639.16;4938352;28;20399;-79
2023/05/11 00:46:32;;;;;;;;;;;;;;;13.63;93.79;100652.69;4914075;28;19926;-83
2023/05/11 00:48:59;;;;;;;;;;;;;;;13.70;93.53;100655.59;4934593;28;19981;-81
2023/05/11 00:51:26;;;;;;;;;;;;;;;13.79;92.76;100649.34;4942388;28;20478;-82
2023/05/11 00:53:56;;;;;;;;;;;;;;;13.81;92.43;100643.81;4943136;28;19922;-82
2023/05/11 00:56:23;;;;;;;;;;;;;;;13.70;93.33;100652.09;4938050;28;19922;-81
2023/05/11 00:58:50;;;;;;;;;;;;;;;13.72;93.49;100650.13;4939582;28;19922;-80
2023/05/11 01:01:17;;;;;;;;;;;;;;;13.75;93.15;100653.28;4936538;28;20165;-81
2023/05/11 01:03:45;;;;;;;;;;;;;;;13.78;93.13;100644.97;4924254;28;20037;-82
2023/05/11 01:06:11;;;;;;;;;;;;;;;13.77;92.28;100648.66;4924951;28;19949;-82
2023/05/11 01:08:44;;;;;;;;;;;;;;;13.70;93.15;100655.59;4939694;28;19922;-80
2023/05/11 01:11:20;;;;;;;;;;;;;;;13.68;93.93;100654.91;4942885;28;20383;-83
2023/05/11 01:13:52;;;;;;;;;;;;;;;13.76;93.38;100657.66;4940114;28;19922;-81
2023/05/11 01:16:19;;;;;;;;;;;;;;;13.73;93.20;100657.94;4935165;28;20060;-82
2023/05/11 01:18:52;;;;;;;;;;;;;;;13.73;93.22;100659.78;4921730;28;20257;-81
2023/05/11 01:21:19;;;;;;;;;;;;;;;13.72;92.81;100664.28;4937533;28;19922;-83
2023/05/11 01:24:04;;;;;;;;;;;;;;;13.62;92.38;100640.38;4915286;28;20033;-83
2023/05/11 01:26:34;;;;;;;;;;;;;;;13.39;92.86;100617.84;4937231;28;19929;-85
2023/05/11 01:29:20;;;;;;;;;;;;;;;13.75;93.12;100663.13;4928289;28;19922;-83
2023/05/11 01:31:48;;;;;;;;;;;;;;;13.63;93.44;100662.53;4930544;28;19926;-82
2023/05/11 01:34:20;;;;;;;;;;;;;;;13.71;93.08;100653.75;4930898;28;20031;-83
2023/05/11 01:36:53;;;;;;;;;;;;;;;13.77;92.61;100662.00;4932343;28;20398;-81
2023/05/11 01:39:23;;;;;;;;;;;;;;;13.86;91.19;100668.22;4933694;28;19944;-85
2023/05/11 01:41:52;;;;;;;;;;;;;;;13.74;91.73;100664.97;4917363;28;19921;-82
2023/05/11 01:44:20;;;;;;;;;;;;;;;13.73;92.10;100665.94;4931800;28;19937;-84
2023/05/11 01:46:50;;;;;;;;;;;;;;;13.74;91.98;100664.97;4922496;28;20358;-82
2023/05/11 01:49:17;;;;;;;;;;;;;;;13.71;92.59;100670.59;4936937;28;20283;-81
2023/05/11 01:51:48;;;;;;;;;;;;;;;13.73;92.46;100668.63;4934258;28;20561;-80
2023/05/11 01:54:17;;;;;;;;;;;;;;;13.69;92.62;100664.59;4933610;28;19925;-84
2023/05/11 01:56:44;;;;;;;;;;;;;;;13.64;92.96;100669.53;4934074;28;20277;-82
2023/05/11 01:59:14;;;;;;;;;;;;;;;13.30;93.53;100611.63;4932537;28;20396;-83
2023/05/11 02:01:43;;;;;;;;;;;;;;;13.66;92.96;100667.56;4922422;28;19922;-82
2023/05/11 02:04:13;;;;;;;;;;;;;;;13.55;93.18;100676.66;4911311;28;19930;-84
2023/05/11 02:06:40;;;;;;;;;;;;;;;13.58;93.29;100671.00;4942066;28;19926;-82
2023/05/11 02:09:08;;;;;;;;;;;;;;;13.52;93.94;100674.31;4942968;28;19932;-82
2023/05/11 02:11:37;;;;;;;;;;;;;;;13.58;93.69;100667.50;4926715;28;19977;-81
2023/05/11 02:14:05;;;;;;;;;;;;;;;13.61;93.86;100677.84;4933953;28;20043;-81
2023/05/11 02:16:32;;;;;;;;;;;;;;;13.64;93.86;100669.53;4912601;28;19926;-83
2023/05/11 02:18:58;;;;;;;;;;;;;;;13.67;93.59;100674.59;4910473;28;19922;-81
2023/05/11 02:21:26;;;;;;;;;;;;;;;13.75;92.68;100681.81;4937795;28;20016;-80
2023/05/11 02:23:54;;;;;;;;;;;;;;;13.72;92.53;100672.28;4926913;28;20078;-83
2023/05/11 02:26:21;;;;;;;;;;;;;;;13.73;92.39;100676.63;4935238;28;19922;-82
2023/05/11 02:28:47;;;;;;;;;;;;;;;13.70;91.93;100673.44;4925405;28;19933;-83
2023/05/11 02:31:16;;;;;;;;;;;;;;;13.67;92.37;100670.09;4918157;28;19922;-83
2023/05/11 02:33:46;;;;;;;;;;;;;;;13.61;93.78;100675.19;4917934;28;19932;-81
2023/05/11 02:36:27;;;;;;;;;;;;;;;13.73;92.70;100673.13;4933604;28;19928;-81
2023/05/11 02:39:05;;;;;;;;;;;;;;;13.74;92.29;100672.97;4921381;28;20287;-80
2023/05/11 02:41:35;;;;;;;;;;;;;;;13.82;91.56;100672.19;4930226;28;19926;-82
2023/05/11 02:44:07;;;;;;;;;;;;;;;13.76;91.57;100668.31;4933784;28;19925;-79
2023/05/11 02:46:35;;;;;;;;;;;;;;;13.69;92.04;100667.28;4937399;28;20070;-78
2023/05/11 02:49:04;;;;;;;;;;;;;;;13.73;91.66;100665.94;4939620;28;19922;-80
2023/05/11 02:51:35;;;;;;;;;;;;;;;13.66;92.34;100672.91;4902947;29;19938;-81
2023/05/11 02:54:05;;;;;;;;;;;;;;;13.71;91.69;100659.91;4905178;29;20395;-79
2023/05/11 02:56:32;;;;;;;;;;;;;;;13.74;91.02;100659.63;4906679;29;19922;-80
2023/05/11 02:59:01;;;;;;;;;;;;;;;13.69;92.01;100659.28;4911145;29;20255;-82
2023/05/11 03:01:27;;;;;;;;;;;;;;;13.66;92.48;100662.22;4931326;28;19933;-79
2023/05/11 03:03:56;;;;;;;;;;;;;;;13.66;92.41;100652.38;4914773;28;20151;-80
2023/05/11 03:06:23;;;;;;;;;;;;;;;13.72;92.04;100650.94;4947350;28;20155;-78
2023/05/11 03:08:50;;;;;;;;;;;;;;;13.74;91.97;100650.78;4944088;28;20039;-80
2023/05/11 03:11:20;;;;;;;;;;;;;;;13.43;91.97;100608.56;4936224;28;19945;-82
2023/05/11 03:13:49;;;;;;;;;;;;;;;13.77;91.02;100648.66;4931165;28;19937;-79
2023/05/11 03:16:16;;;;;;;;;;;;;;;13.76;91.03;100648.78;4938566;28;20362;-82
2023/05/11 03:18:47;;;;;;;;;;;;;;;13.75;91.19;100650.63;4936260;28;20025;-81
2023/05/11 03:21:20;;;;;;;;;;;;;;;13.72;91.67;100650.13;4942349;28;20343;-80
2023/05/11 03:23:47;;;;;;;;;;;;;;;13.71;90.90;100645.75;4933594;28;20343;-82
2023/05/11 03:26:15;;;;;;;;;;;;;;;13.67;91.33;100658.59;4939802;28;19922;-78
2023/05/11 03:28:43;;;;;;;;;;;;;;;13.73;91.24;100652.59;4935107;28;20360;-80
2023/05/11 03:31:09;;;;;;;;;;;;;;;13.73;91.34;100655.28;4921028;28;20494;-80
2023/05/11 03:33:36;;;;;;;;;;;;;;;13.73;91.27;100660.63;4938488;28;19922;-80
2023/05/11 03:36:04;;;;;;;;;;;;;;;13.81;90.36;100652.69;4920648;28;19922;-81
2023/05/11 03:38:31;;;;;;;;;;;;;;;13.76;90.28;100655.00;4917734;28;19922;-80
2023/05/11 03:41:00;;;;;;;;;;;;;;;13.75;89.46;100649.78;4922935;28;19958;-79
2023/05/11 03:43:31;;;;;;;;;;;;;;;13.93;88.05;100652.41;4923316;28;19968;-79
2023/05/11 03:45:59;;;;;;;;;;;;;;;13.84;88.59;100656.88;4930186;28;19926;-81
2023/05/11 03:48:28;;;;;;;;;;;;;;;13.85;89.11;100654.03;4935475;28;19922;-81
2023/05/11 03:50:56;;;;;;;;;;;;;;;13.77;88.95;100659.31;4911441;29;19928;-79
2023/05/11 03:53:23;;;;;;;;;;;;;;;13.81;88.46;100666.03;4897301;29;19969;-80
2023/05/11 03:55:51;;;;;;;;;;;;;;;13.82;88.45;100656.19;4901927;29;20444;-80
2023/05/11 03:58:18;;;;;;;;;;;;;;;13.84;87.74;100659.53;4930430;28;20013;-80
2023/05/11 04:00:45;;;;;;;;;;;;;;;13.81;88.11;100660.69;4897031;29;20005;-79
2023/05/11 04:03:13;;;;;;;;;;;;;;;13.75;88.57;100666.63;4921893;28;20411;-80
2023/05/11 04:05:40;;;;;;;;;;;;;;;13.66;89.37;100657.72;4929933;28;19928;-80
2023/05/11 04:08:08;;;;;;;;;;;;;;;13.65;90.11;100660.56;4925971;28;20121;-79
2023/05/11 04:10:35;;;;;;;;;;;;;;;13.64;90.28;100653.53;4919297;28;19985;-80
2023/05/11 04:13:01;;;;;;;;;;;;;;;13.56;90.91;100653.47;4926891;28;19926;-79
2023/05/11 04:15:30;;;;;;;;;;;;;;;13.62;90.24;100650.22;4936130;28;19922;-80
2023/05/11 04:17:57;;;;;;;;;;;;;;;13.62;90.63;100655.53;4942465;28;20703;-81
2023/05/11 04:20:24;;;;;;;;;;;;;;;13.62;90.88;100660.88;4938729;28;20387;-80
2023/05/11 04:22:53;;;;;;;;;;;;;;;13.20;91.67;100613.47;4944362;28;19961;-80
2023/05/11 04:25:21;;;;;;;;;;;;;;;12.96;91.04;100564.31;4942806;28;20190;-81
2023/05/11 04:27:48;;;;;;;;;;;;;;;13.66;90.82;100663.06;4944919;28;19981;-80
2023/05/11 04:30:19;;;;;;;;;;;;;;;13.65;90.61;100666.72;4935794;28;20074;-80
2023/05/11 04:32:46;;;;;;;;;;;;;;;13.68;90.29;100670.91;4944528;28;19922;-79
2023/05/11 04:35:13;;;;;;;;;;;;;;;13.66;90.17;100668.38;4939924;28;19922;-81
2023/05/11 04:37:40;;;;;;;;;;;;;;;13.74;89.71;100664.97;4931367;28;19980;-81
2023/05/11 04:40:09;;;;;;;;;;;;;;;13.72;89.75;100672.28;4936463;28;19926;-79
2023/05/11 04:42:38;;;;;;;;;;;;;;;13.66;89.69;100680.91;4945128;28;19922;-80
2023/05/11 04:45:05;;;;;;;;;;;;;;;13.72;89.65;100677.63;4923924;28;20419;-81
2023/05/11 04:47:32;;;;;;;;;;;;;;;13.65;89.52;100676.56;4941470;28;19922;-81
2023/05/11 04:49:59;;;;;;;;;;;;;;;13.76;88.49;100671.00;4948948;28;20005;-80
2023/05/11 04:52:25;;;;;;;;;;;;;;;13.70;89.31;100679.59;4940968;28;19934;-81
2023/05/11 04:54:52;;;;;;;;;;;;;;;13.69;88.97;100672.59;4945636;28;20369;-80
2023/05/11 04:57:19;;;;;;;;;;;;;;;13.66;89.36;100678.22;4940421;28;20020;-81
2023/05/11 04:59:45;;;;;;;;;;;;;;;13.63;89.25;100678.53;4950568;28;19972;-82
2023/05/11 05:02:12;;;;;;;;;;;;;;;13.60;89.51;100681.53;4947195;28;19936;-81
2023/05/11 05:04:41;;;;;;;;;;;;;;;13.55;90.18;100687.31;4945691;28;20189;-80
2023/05/11 05:07:10;;;;;;;;;;;;;;;13.30;90.33;100629.44;4943936;28;19926;-81
2023/05/11 05:09:36;;;;;;;;;;;;;;;13.63;90.52;100683.88;4948907;28;19937;-78
2023/05/11 05:12:05;;;;;;;;;;;;;;;13.68;88.89;100678.91;4935896;28;19932;-80
2023/05/11 05:14:32;;;;;;;;;;;;;;;13.65;89.24;100682.72;4941980;28;20001;-81
2023/05/11 05:17:01;;;;;;;;;;;;;;;13.61;89.77;100676.03;4947778;28;20124;-80
2023/05/11 05:19:36;;;;;;;;;;;;;;;13.64;89.70;100689.06;4946936;28;19922;-80
2023/05/11 05:22:03;;;;;;;;;;;;;;;13.59;90.66;100693.19;4944470;28;20439;-81
2023/05/11 05:24:29;;;;;;;;;;;;;;;13.64;90.57;100685.53;4941699;28;20408;-81
2023/05/11 05:26:56;;;;;;;;;;;;;;;13.59;91.25;100693.19;4942300;28;19922;-80
2023/05/11 05:29:22;;;;;;;;;;;;;;;13.55;91.03;100689.16;4933090;28;19933;-81
2023/05/11 05:31:49;;;;;;;;;;;;;;;13.59;90.61;100701.19;4942915;28;19926;-81
2023/05/11 05:34:19;;;;;;;;;;;;;;;13.35;90.48;100651.13;4940566;28;19922;-80
2023/05/11 05:36:45;;;;;;;;;;;;;;;13.71;89.94;100699.13;4943673;28;19922;-81
2023/05/11 05:39:12;;;;;;;;;;;;;;;13.66;90.58;100696.91;4942554;28;20159;-81
2023/05/11 05:41:42;;;;;;;;;;;;;;;13.69;89.99;100699.28;4942537;28;20275;-81
2023/05/11 05:44:09;;;;;;;;;;;;;;;13.67;90.58;100693.25;4914103;28;20450;-80
2023/05/11 05:46:35;;;;;;;;;;;;;;;13.69;90.69;100696.63;4942861;28;20001;-81
2023/05/11 05:49:07;;;;;;;;;;;;;;;13.70;90.56;100695.63;4936322;28;19977;-81
2023/05/11 05:51:33;;;;;;;;;;;;;;;13.72;90.56;100698.13;4906465;28;19950;-79
2023/05/11 05:54:00;;;;;;;;;;;;;;;13.74;90.42;100698.78;4944643;28;20308;-79
2023/05/11 05:56:27;;;;;;;;;;;;;;;13.75;90.55;100693.31;4943032;28;20692;-80
2023/05/11 05:58:54;;;;;;;;;;;;;;;13.46;90.29;100646.41;4955623;28;19926;-79
2023/05/11 06:01:21;;;;;;;;;;;;;;;13.83;90.42;100696.03;4949682;28;20255;-80
2023/05/11 06:03:50;;;;;;;;;;;;;;;13.86;89.06;100695.75;4950238;28;19922;-79
2023/05/11 06:06:17;;;;;;;;;;;;;;;13.85;89.68;100696.72;4941885;28;20379;-77
2023/05/11 06:08:44;;;;;;;;;;;;;;;13.87;89.77;100693.91;4943909;28;19922;-79
2023/05/11 06:11:11;;;;;;;;;;;;;;;14.01;89.66;100692.50;4941315;28;20226;-80
2023/05/11 06:13:38;;;;;;;;;;;;;;;13.98;89.50;100692.81;4949474;28;20396;-78
2023/05/11 06:16:05;;;;;;;;;;;;;;;14.02;89.70;100689.66;4944782;28;20407;-80
2023/05/11 06:18:32;;;;;;;;;;;;;;;14.01;90.22;100687.19;4940459;28;19932;-80
2023/05/11 06:20:58;;;;;;;;;;;;;;;14.05;89.58;100685.84;4945072;28;19926;-80
2023/05/11 06:23:25;;;;;;;;;;;;;;;14.14;88.11;100684.91;4948508;28;20000;-79
2023/05/11 06:25:52;;;;;;;;;;;;;;;14.14;88.40;100684.91;4943363;28;20159;-79
2023/05/11 06:28:21;;;;;;;;;;;;;;;14.11;88.52;100683.41;4944387;28;19929;-79
2023/05/11 06:31:02;;;;;;;;;;;;;;;14.09;89.42;100680.03;4945922;28;20021;-77
2023/05/11 06:33:34;;;;;;;;;;;;;;;14.13;88.81;100672.56;4942223;28;19944;-79
2023/05/11 06:36:04;;;;;;;;;;;;;;;14.22;88.14;100670.75;4933796;28;19922;-79
2023/05/11 06:38:31;;;;;;;;;;;;;;;14.23;88.86;100675.97;4925919;28;20173;-80
2023/05/11 06:41:00;;;;;;;;;;;;;;;14.34;88.83;100672.16;4943370;28;19926;-78
2023/05/11 06:43:27;;;;;;;;;;;;;;;14.39;87.57;100674.34;4942889;28;20364;-80
2023/05/11 06:45:54;;;;;;;;;;;;;;;14.52;86.40;100672.09;4949782;28;19930;-78
2023/05/11 06:48:24;;;;;;;;;;;;;;;14.50;85.48;100666.06;4947289;28;19952;-79
2023/05/11 06:50:55;;;;;;;;;;;;;;;14.53;85.73;100671.09;4945428;28;20511;-80
2023/05/11 06:53:22;;;;;;;;;;;;;;;14.51;86.30;100678.41;4954760;28;19976;-78
2023/05/11 06:55:49;;;;;;;;;;;;;;;14.58;85.65;100679.50;4942579;28;19922;-80
2023/05/11 06:58:16;;;;;;;;;;;;;;;14.60;86.42;100682.84;4938938;28;19926;-79
2023/05/11 07:00:43;;;;;;;;;;;;;;;14.59;86.46;100681.19;4943234;28;20408;-79
2023/05/11 07:03:09;;;;;;;;;;;;;;;14.63;87.43;100684.34;4932921;28;20048;-81
2023/05/11 07:05:37;;;;;;;;;;;;;;;14.74;86.08;100681.41;4932220;28;19922;-81
2023/05/11 07:08:04;;;;;;;;;;;;;;;14.68;85.77;100685.53;4947140;28;19922;-77
2023/05/11 07:10:33;;;;;;;;;;;;;;;14.65;85.50;100691.22;4943881;28;19926;-82
2023/05/11 07:13:00;;;;;;;;;;;;;;;14.61;86.09;100692.56;4947844;28;20339;-78
2023/05/11 07:15:27;;;;;;;;;;;;;;;14.64;84.68;100700.22;4948491;28;19933;-80
2023/05/11 07:17:53;;;;;;;;;;;;;;;14.70;84.35;100690.72;4942133;28;19933;-79
2023/05/11 07:20:20;;;;;;;;;;;;;;;14.61;85.16;100695.22;4942628;28;20272;-80
2023/05/11 07:22:47;;;;;;;;;;;;;;;14.64;84.57;100689.56;4944644;28;19922;-80
2023/05/11 07:25:14;;;;;;;;;;;;;;;14.61;84.24;100697.88;4951320;28;20224;-80
2023/05/11 07:27:41;;;;;;;;;;;;;;;14.59;83.67;100697.22;4943016;28;19980;-79
2023/05/11 07:30:07;;;;;;;;;;;;;;;14.55;84.35;100695.84;4952685;28;19992;-79
2023/05/11 07:32:38;;;;;;;;;;;;;;;14.62;83.38;100698.72;4950482;28;19922;-80
2023/05/11 07:35:05;;;;;;;;;;;;;;;14.53;84.04;100700.47;4924069;28;19929;-78
2023/05/11 07:37:32;;;;;;;;;;;;;;;14.49;83.95;100696.44;4935783;28;19930;-79
2023/05/11 07:39:59;;;;;;;;;;;;;;;14.46;85.14;100699.44;4939238;28;19929;-80
2023/05/11 07:42:26;;;;;;;;;;;;;;;14.50;85.57;100703.47;4945408;28;20478;-80
2023/05/11 07:44:55;;;;;;;;;;;;;;;14.51;85.20;100699.78;4942794;28;19974;-79
2023/05/11 07:47:22;;;;;;;;;;;;;;;14.50;85.33;100708.81;4941440;28;19965;-78
2023/05/11 07:49:49;;;;;;;;;;;;;;;14.45;85.87;100706.63;4934410;28;19922;-79
2023/05/11 07:52:16;;;;;;;;;;;;;;;14.49;85.38;100704.44;4944074;28;19922;-80
2023/05/11 07:54:43;;;;;;;;;;;;;;;14.44;86.61;100702.28;4939553;28;19996;-80
2023/05/11 07:57:12;;;;;;;;;;;;;;;14.45;87.21;100706.63;4941600;28;19925;-78
2023/05/11 07:59:42;;;;;;;;;;;;;;;14.49;86.91;100704.44;4943709;28;20158;-79
2023/05/11 08:02:08;;;;;;;;;;;;;;;14.52;87.27;100712.16;4948212;28;19922;-80
2023/05/11 08:04:38;;;;;;;;;;;;;;;14.46;87.15;100702.94;4948367;28;19961;-82
2023/05/11 08:07:06;;;;;;;;;;;;;;;14.39;88.22;100706.41;4922966;28;19953;-81
2023/05/11 08:09:33;;;;;;;;;;;;;;;14.37;89.26;100714.59;4939898;28;19929;-79
2023/05/11 08:12:00;;;;;;;;;;;;;;;14.41;89.24;100705.25;4945786;28;19925;-81
2023/05/11 08:14:27;;;;;;;;;;;;;;;14.48;89.27;100698.28;4927705;28;19969;-81
2023/05/11 08:16:54;;;;;;;;;;;;;;;14.52;88.94;100709.50;4942953;28;20351;-81
2023/05/11 08:19:21;;;;;;;;;;;;;;;14.47;88.63;100709.16;4940788;28;19934;-81
2023/05/11 08:21:48;;;;;;;;;;;;;;;14.47;89.99;100714.47;4941803;28;20401;-81
2023/05/11 08:24:14;;;;;;;;;;;;;;;14.55;89.37;100714.53;4939474;28;20392;-82
2023/05/11 08:26:41;;;;;;;;;;;;;;;14.50;88.05;100714.16;4943237;28;20121;-83
2023/05/11 08:29:09;;;;;;;;;;;;;;;14.46;90.26;100713.63;4935073;28;19930;-81
2023/05/11 08:31:38;;;;;;;;;;;;;;;14.17;91.20;100655.22;4925714;28;19996;-81
2023/05/11 08:34:05;;;;;;;;;;;;;;;14.57;90.28;100709.88;4943251;28;20377;-81
2023/05/11 08:36:44;;;;;;;;;;;;;;;14.56;90.62;100712.72;4932192;28;19929;-82
2023/05/11 08:39:12;;;;;;;;;;;;;;;14.63;90.60;100719.91;4944912;28;20383;-82
2023/05/11 08:42:04;;;;;;;;;;;;;;;14.58;90.22;100716.88;4926500;28;20496;-80
2023/05/11 08:44:32;;;;;;;;;;;;;;;14.59;90.25;100718.59;4930754;28;19932;-82
2023/05/11 08:47:07;;;;;;;;;;;;;;;14.70;88.04;100715.59;4932027;28;19949;-82
2023/05/11 08:49:40;;;;;;;;;;;;;;;14.63;88.57;100713.75;4948872;28;20209;-82
2023/05/11 08:52:09;;;;;;;;;;;;;;;14.59;89.67;100712.38;4941281;28;19930;-83
2023/05/11 08:54:36;;;;;;;;;;;;;;;14.56;89.06;100721.56;4943504;28;20708;-81
2023/05/11 08:57:03;;;;;;;;;;;;;;;14.54;89.38;100720.91;4940995;28;19925;-81
2023/05/11 08:59:32;;;;;;;;;;;;;;;14.50;88.47;100719.50;4941111;28;19946;-81
2023/05/11 09:02:03;;;;;;;;;;;;;;;14.53;88.55;100725.38;4948001;28;20342;-79
2023/05/11 09:04:31;;;;;;;;;;;;;;;14.60;87.97;100725.59;4923935;28;20512;-80
2023/05/11 09:06:58;;;;;;;;;;;;;;;14.54;87.73;100726.25;4933444;28;20149;-80
2023/05/11 09:09:25;;;;;;;;;;;;;;;14.57;88.62;100731.25;4934917;28;19922;-83
2023/05/11 09:11:52;;;;;;;;;;;;;;;14.65;87.65;100733.13;4942268;28;19922;-83
2023/05/11 09:14:19;;;;;;;;;;;;;;;14.64;87.74;100731.47;4928548;28;19933;-83
2023/05/11 09:16:52;;;;;;;;;;;;;;;14.58;85.97;100735.59;4932980;28;19930;-83
2023/05/11 09:19:19;;;;;;;;;;;;;;;14.62;87.05;100728.13;4937950;28;19933;-82
2023/05/11 09:21:46;;;;;;;;;;;;;;;14.62;88.11;100728.94;4942594;28;19922;-81
2023/05/11 09:24:13;;;;;;;;;;;;;;;14.64;89.24;100724.28;4939600;28;19993;-81
2023/05/11 09:26:40;;;;;;;;;;;;;;;14.75;86.81;100733.84;4929325;28;19922;-81
2023/05/11 09:29:06;;;;;;;;;;;;;;;14.51;87.12;100689.09;4946342;28;19926;-82
2023/05/11 09:31:38;;;;;;;;;;;;;;;14.76;87.47;100732.84;4953556;28;19933;-82
2023/05/11 09:34:25;;;;;;;;;;;;;;;14.78;87.78;100728.16;4943998;28;20390;-82
2023/05/11 09:36:55;;;;;;;;;;;;;;;14.84;87.83;100732.06;4930315;28;19929;-83
2023/05/11 09:39:35;;;;;;;;;;;;;;;14.86;87.60;100728.22;4949025;28;19969;-82
2023/05/11 09:42:19;;;;;;;;;;;;;;;15.00;86.55;100731.25;4943711;28;19922;-83
2023/05/11 09:44:49;;;;;;;;;;;;;;;15.09;87.41;100723.09;4938026;28;19933;-81
2023/05/11 09:47:17;;;;;;;;;;;;;;;15.15;87.69;100724.31;4943774;28;19922;-83
2023/05/11 09:49:47;;;;;;;;;;;;;;;15.20;87.74;100724.66;4933273;28;19922;-83
2023/05/11 09:52:15;;;;;;;;;;;;;;;14.74;87.08;100647.50;4915430;28;19948;-83
2023/05/11 09:54:42;;;;;;;;;;;;;;;15.35;86.64;100727.50;4925793;28;19966;-82
2023/05/11 09:57:26;;;;;;;;;;;;;;;15.50;85.59;100722.34;4908226;29;19922;-80
2023/05/11 09:59:55;;;;;;;;;;;;;;;15.41;86.18;100721.50;4912447;28;19941;-81
2023/05/11 10:02:23;;;;;;;;;;;;;;;15.40;86.03;100722.50;4924203;28;19926;-83
2023/05/11 10:04:51;;;;;;;;;;;;;;;15.46;85.96;100724.53;4915797;28;20263;-83
2023/05/11 10:07:37;;;;;;;;;;;;;;;15.45;86.19;100720.16;4934854;28;20399;-80
2023/05/11 10:10:05;;;;;;;;;;;;;;;15.59;86.70;100714.16;4926017;29;19926;-81
2023/05/11 10:12:38;;;;;;;;;;;;;;;15.59;84.36;100711.50;4922078;29;19949;-81
2023/05/11 10:15:08;;;;;;;;;;;;;;;15.64;85.12;100710.16;4941221;28;19923;-79
2023/05/11 10:17:36;;;;;;;;;;;;;;;15.78;85.21;100704.19;4939807;28;20619;-82
2023/05/11 10:20:04;;;;;;;;;;;;;;;15.91;86.43;100698.31;4942777;28;20272;-79
2023/05/11 10:22:30;;;;;;;;;;;;;;;16.07;82.48;100700.09;4943515;28;19933;-80
2023/05/11 10:24:58;;;;;;;;;;;;;;;15.86;82.38;100653.28;4933196;28;19922;-82
2023/05/11 10:27:30;;;;;;;;;;;;;;;16.16;81.28;100701.78;4938859;28;20304;-79
2023/05/11 10:29:57;;;;;;;;;;;;;;;16.26;81.73;100702.41;4919286;28;19986;-82
2023/05/11 10:32:29;;;;;;;;;;;;;;;16.30;79.91;100701.06;4933755;28;19956;-82
2023/05/11 10:34:59;;;;;;;;;;;;;;;16.38;77.60;100701.06;4887578;29;20013;-82
2023/05/11 10:37:26;;;;;;;;;;;;;;;16.30;78.76;100694.88;4935476;28;19926;-81
2023/05/11 10:39:52;;;;;;;;;;;;;;;16.20;80.17;100692.41;4940082;28;20025;-79
2023/05/11 10:42:28;;;;;;;;;;;;;;;16.24;79.89;100701.78;4922171;28;19953;-80
2023/05/11 10:45:09;;;;;;;;;;;;;;;16.17;78.89;100693.56;4939178;28;19930;-81
2023/05/11 10:47:52;;;;;;;;;;;;;;;16.27;78.85;100690.72;4933706;28;19949;-81
2023/05/11 10:50:18;;;;;;;;;;;;;;;16.21;78.58;100699.41;4930407;28;20324;-81
2023/05/11 10:52:57;;;;;;;;;;;;;;;16.31;78.26;100693.88;4920253;29;19922;-81
2023/05/11 10:55:34;;;;;;;;;;;;;;;16.34;78.11;100682.81;4912836;29;19927;-82
2023/05/11 10:58:01;;;;;;;;;;;;;;;16.11;78.36;100638.00;4916149;29;19930;-81
2023/05/11 11:00:48;;;;;;;;;;;;;;;16.54;79.03;100683.25;4932575;28;20126;-82
2023/05/11 11:03:16;;;;;;;;;;;;;;;16.91;78.46;100685.28;4938353;28;19976;-83
2023/05/11 11:05:44;;;;;;;;;;;;;;;17.28;76.13;100678.34;4927883;28;20302;-77
2023/05/11 11:08:11;;;;;;;;;;;;;;;17.33;74.05;100676.00;4944797;28;19929;-79
2023/05/11 11:10:39;;;;;;;;;;;;;;;17.36;74.88;100681.00;4948534;28;19922;-78
2023/05/11 11:13:10;;;;;;;;;;;;;;;17.48;73.67;100668.00;4941017;28;20282;-80
2023/05/11 11:15:56;;;;;;;;;;;;;;;17.40;73.20;100678.78;4913346;28;20427;-82
2023/05/11 11:18:24;;;;;;;;;;;;;;;17.37;71.69;100671.09;4929504;28;19922;-81
2023/05/11 11:20:52;;;;;;;;;;;;;;;17.41;73.60;100680.47;4920551;28;20167;-83
2023/05/11 11:23:41;;;;;;;;;;;;;;;17.60;72.17;100666.56;4935985;28;20058;-81
2023/05/11 11:26:08;;;;;;;;;;;;;;;17.51;70.62;100671.13;4939405;28;19922;-82
2023/05/11 11:28:59;;;;;;;;;;;;;;;17.50;71.71;100679.34;4923003;28;19926;-81
2023/05/11 11:31:27;;;;;;;;;;;;;;;17.57;70.71;100680.31;4951002;28;19922;-81
2023/05/11 11:33:57;;;;;;;;;;;;;;;17.30;71.13;100625.34;4924887;28;19945;-83
2023/05/11 11:36:43;;;;;;;;;;;;;;;17.49;69.72;100677.69;4946368;28;19922;-82
2023/05/11 11:39:10;;;;;;;;;;;;;;;17.47;69.61;100674.34;4944036;28;19968;-80
2023/05/11 11:41:38;;;;;;;;;;;;;;;17.39;70.32;100677.13;4944429;28;20017;-79
2023/05/11 11:44:18;;;;;;;;;;;;;;;17.31;70.83;100672.66;4920545;28;20001;-82
2023/05/11 11:46:45;;;;;;;;;;;;;;;17.35;70.65;100682.00;4936439;28;20391;-82
2023/05/11 11:49:12;;;;;;;;;;;;;;;17.25;69.42;100671.50;4935396;28;19950;-82
2023/05/11 11:51:39;;;;;;;;;;;;;;;17.20;70.18;100665.00;4913757;29;19922;-82
2023/05/11 11:54:09;;;;;;;;;;;;;;;17.19;70.43;100666.84;4912770;29;20024;-83
2023/05/11 11:56:37;;;;;;;;;;;;;;;17.27;68.78;100664.09;4909913;28;19922;-84
2023/05/11 11:59:10;;;;;;;;;;;;;;;17.23;70.02;100654.75;4930321;28;20276;-83
2023/05/11 12:01:38;;;;;;;;;;;;;;;17.23;69.58;100654.75;4940938;28;19933;-80
2023/05/11 12:04:23;;;;;;;;;;;;;;;17.24;70.64;100653.75;4934828;28;19922;-80
2023/05/11 12:06:56;;;;;;;;;;;;;;;17.17;71.46;100658.16;4933105;28;20303;-82
2023/05/11 12:09:27;;;;;;;;;;;;;;;17.22;69.78;100655.75;4924043;28;19921;-84
2023/05/11 12:11:55;;;;;;;;;;;;;;;17.27;71.14;100666.78;4923381;28;19934;-82
2023/05/11 12:14:25;;;;;;;;;;;;;;;17.23;71.27;100664.63;4937931;28;20056;-81
2023/05/11 12:17:14;;;;;;;;;;;;;;;17.21;70.74;100667.53;4930436;28;19930;-78
2023/05/11 12:19:41;;;;;;;;;;;;;;;17.38;71.30;100664.69;4914498;29;19923;-80
2023/05/11 12:22:15;;;;;;;;;;;;;;;17.55;71.79;100644.78;4920566;28;19926;-79
2023/05/11 12:24:41;;;;;;;;;;;;;;;17.85;69.92;100653.75;4913629;29;19923;-81
2023/05/11 12:27:08;;;;;;;;;;;;;;;17.97;69.15;100654.16;4918600;29;20225;-82
2023/05/11 12:29:37;;;;;;;;;;;;;;;18.04;68.21;100646.19;4916749;29;20459;-82
2023/05/11 12:32:07;;;;;;;;;;;;;;;18.23;68.36;100647.47;4931846;28;20021;-80
2023/05/11 12:34:38;;;;;;;;;;;;;;;18.17;69.63;100583.75;4942011;28;19973;-81
2023/05/11 12:37:05;;;;;;;;;;;;;;;19.03;67.69;100643.13;4925554;28;19926;-79
2023/05/11 12:39:34;;;;;;;;;;;;;;;18.99;65.57;100645.38;4939769;28;20220;-79
2023/05/11 12:42:01;;;;;;;;;;;;;;;18.94;65.22;100648.63;4943265;28;20569;-81
2023/05/11 12:44:31;;;;;;;;;;;;;;;18.58;63.23;100598.31;4946960;28;20380;-81
2023/05/11 12:46:58;;;;;;;;;;;;;;;18.49;65.99;100653.22;4946655;28;19922;-82